sensor_id;sensor_type;location;lat;lon;timestamp;P1;durP1;ratioP1;P2;durP2;ratioP2
22648;SDS011;11491;41.942;24.220;2022-09-09T00:02:03;21.60;;;12.35;;
22648;SDS011;11491;41.942;24.220;2022-09-09T00:04:40;14.57;;;12.02;;
22648;SDS011;11491;41.942;24.220;2022-09-09T00:07:10;16.15;;;13.25;;
22648;SDS011;11491;41.942;24.220;2022-09-09T00:09:47;13.65;;;12.05;;
22648;SDS011;11491;41.942;24.220;2022-09-09T00:12:21;15.18;;;12.48;;
22648;SDS011;11491;41.942;24.220;2022-09-09T00:14:54;19.45;;;12.68;;
22648;SDS011;11491;41.942;24.220;2022-09-09T00:17:26;15.05;;;11.93;;
22648;SDS011;11491;41.942;24.220;2022-09-09T00:20:02;14.05;;;12.10;;
22648;SDS011;11491;41.942;24.220;2022-09-09T00:22:39;15.85;;;11.95;;
22648;SDS011;11491;41.942;24.220;2022-09-09T00:25:14;18.85;;;12.38;;
22648;SDS011;11491;41.942;24.220;2022-09-09T00:27:47;16.08;;;12.65;;
22648;SDS011;11491;41.942;24.220;2022-09-09T00:30:16;14.18;;;11.55;;
22648;SDS011;11491;41.942;24.220;2022-09-09T00:32:45;17.95;;;12.35;;
22648;SDS011;11491;41.942;24.220;2022-09-09T00:35:16;17.15;;;13.43;;
22648;SDS011;11491;41.942;24.220;2022-09-09T00:37:50;15.27;;;13.20;;
22648;SDS011;11491;41.942;24.220;2022-09-09T00:40:22;17.02;;;12.43;;
22648;SDS011;11491;41.942;24.220;2022-09-09T00:43:04;14.93;;;12.00;;
22648;SDS011;11491;41.942;24.220;2022-09-09T00:45:59;17.00;;;12.88;;
22648;SDS011;11491;41.942;24.220;2022-09-09T00:48:46;15.45;;;12.18;;
22648;SDS011;11491;41.942;24.220;2022-09-09T00:51:22;14.30;;;11.70;;
22648;SDS011;11491;41.942;24.220;2022-09-09T00:54:01;17.80;;;13.43;;
22648;SDS011;11491;41.942;24.220;2022-09-09T00:56:38;17.98;;;12.35;;
22648;SDS011;11491;41.942;24.220;2022-09-09T00:59:16;17.90;;;12.55;;
22648;SDS011;11491;41.942;24.220;2022-09-09T01:01:51;20.10;;;13.13;;
22648;SDS011;11491;41.942;24.220;2022-09-09T01:04:21;21.33;;;12.90;;
22648;SDS011;11491;41.942;24.220;2022-09-09T01:06:57;14.93;;;12.20;;
22648;SDS011;11491;41.942;24.220;2022-09-09T01:09:32;16.45;;;13.18;;
22648;SDS011;11491;41.942;24.220;2022-09-09T01:12:07;13.52;;;12.13;;
22648;SDS011;11491;41.942;24.220;2022-09-09T01:14:39;18.10;;;12.75;;
22648;SDS011;11491;41.942;24.220;2022-09-09T01:17:12;16.55;;;13.30;;
22648;SDS011;11491;41.942;24.220;2022-09-09T01:19:50;18.65;;;13.48;;
22648;SDS011;11491;41.942;24.220;2022-09-09T01:22:28;18.30;;;13.32;;
22648;SDS011;11491;41.942;24.220;2022-09-09T01:25:15;15.10;;;11.95;;
22648;SDS011;11491;41.942;24.220;2022-09-09T01:28:25;15.27;;;12.32;;
22648;SDS011;11491;41.942;24.220;2022-09-09T01:30:54;14.63;;;12.20;;
22648;SDS011;11491;41.942;24.220;2022-09-09T01:33:22;15.73;;;12.60;;
22648;SDS011;11491;41.942;24.220;2022-09-09T01:35:50;14.60;;;12.23;;
22648;SDS011;11491;41.942;24.220;2022-09-09T01:38:21;16.13;;;12.52;;
22648;SDS011;11491;41.942;24.220;2022-09-09T01:40:51;14.95;;;12.50;;
22648;SDS011;11491;41.942;24.220;2022-09-09T01:43:18;16.17;;;12.73;;
22648;SDS011;11491;41.942;24.220;2022-09-09T01:45:46;16.00;;;12.68;;
22648;SDS011;11491;41.942;24.220;2022-09-09T01:48:16;20.90;;;13.27;;
22648;SDS011;11491;41.942;24.220;2022-09-09T01:50:45;14.60;;;12.98;;
22648;SDS011;11491;41.942;24.220;2022-09-09T01:53:11;15.65;;;13.38;;
22648;SDS011;11491;41.942;24.220;2022-09-09T01:55:41;19.20;;;12.57;;
22648;SDS011;11491;41.942;24.220;2022-09-09T01:58:19;16.25;;;12.57;;
22648;SDS011;11491;41.942;24.220;2022-09-09T02:01:00;19.27;;;12.32;;
22648;SDS011;11491;41.942;24.220;2022-09-09T02:03:32;14.00;;;12.52;;
22648;SDS011;11491;41.942;24.220;2022-09-09T02:06:03;17.40;;;12.77;;
22648;SDS011;11491;41.942;24.220;2022-09-09T02:08:45;17.02;;;12.32;;
22648;SDS011;11491;41.942;24.220;2022-09-09T02:11:14;16.10;;;12.52;;
22648;SDS011;11491;41.942;24.220;2022-09-09T02:13:44;17.45;;;12.80;;
22648;SDS011;11491;41.942;24.220;2022-09-09T02:16:14;17.25;;;12.63;;
22648;SDS011;11491;41.942;24.220;2022-09-09T02:18:47;15.82;;;12.23;;
22648;SDS011;11491;41.942;24.220;2022-09-09T02:21:17;23.13;;;13.20;;
22648;SDS011;11491;41.942;24.220;2022-09-09T02:23:44;20.58;;;13.02;;
22648;SDS011;11491;41.942;24.220;2022-09-09T02:26:17;16.77;;;13.50;;
22648;SDS011;11491;41.942;24.220;2022-09-09T02:28:50;16.13;;;13.07;;
22648;SDS011;11491;41.942;24.220;2022-09-09T02:31:20;15.40;;;12.27;;
22648;SDS011;11491;41.942;24.220;2022-09-09T02:33:51;18.35;;;11.63;;
22648;SDS011;11491;41.942;24.220;2022-09-09T02:36:21;18.93;;;11.37;;
22648;SDS011;11491;41.942;24.220;2022-09-09T02:38:50;17.00;;;12.55;;
22648;SDS011;11491;41.942;24.220;2022-09-09T02:41:19;14.57;;;12.00;;
22648;SDS011;11491;41.942;24.220;2022-09-09T02:43:50;17.45;;;11.80;;
22648;SDS011;11491;41.942;24.220;2022-09-09T02:49:18;14.15;;;12.00;;
22648;SDS011;11491;41.942;24.220;2022-09-09T02:54:22;15.85;;;13.05;;
22648;SDS011;11491;41.942;24.220;2022-09-09T02:56:56;17.42;;;12.40;;
22648;SDS011;11491;41.942;24.220;2022-09-09T02:59:29;16.75;;;12.98;;
22648;SDS011;11491;41.942;24.220;2022-09-09T03:01:57;16.63;;;13.73;;
22648;SDS011;11491;41.942;24.220;2022-09-09T03:04:24;19.15;;;13.43;;
22648;SDS011;11491;41.942;24.220;2022-09-09T03:06:51;20.13;;;13.35;;
22648;SDS011;11491;41.942;24.220;2022-09-09T03:09:17;16.83;;;12.52;;
22648;SDS011;11491;41.942;24.220;2022-09-09T03:11:44;15.85;;;12.98;;
22648;SDS011;11491;41.942;24.220;2022-09-09T03:14:11;23.38;;;16.23;;
22648;SDS011;11491;41.942;24.220;2022-09-09T03:16:39;19.77;;;13.45;;
22648;SDS011;11491;41.942;24.220;2022-09-09T03:19:07;15.73;;;13.02;;
22648;SDS011;11491;41.942;24.220;2022-09-09T03:21:34;25.15;;;12.75;;
22648;SDS011;11491;41.942;24.220;2022-09-09T03:24:01;17.60;;;12.50;;
22648;SDS011;11491;41.942;24.220;2022-09-09T03:26:28;15.35;;;11.73;;
22648;SDS011;11491;41.942;24.220;2022-09-09T03:28:56;15.20;;;11.77;;
22648;SDS011;11491;41.942;24.220;2022-09-09T03:31:25;21.40;;;11.32;;
22648;SDS011;11491;41.942;24.220;2022-09-09T03:33:56;14.93;;;12.32;;
22648;SDS011;11491;41.942;24.220;2022-09-09T03:36:24;14.77;;;11.40;;
22648;SDS011;11491;41.942;24.220;2022-09-09T03:38:51;13.57;;;11.05;;
22648;SDS011;11491;41.942;24.220;2022-09-09T03:41:19;15.48;;;11.20;;
22648;SDS011;11491;41.942;24.220;2022-09-09T03:43:48;13.48;;;10.80;;
22648;SDS011;11491;41.942;24.220;2022-09-09T03:46:15;15.45;;;11.13;;
22648;SDS011;11491;41.942;24.220;2022-09-09T03:48:42;14.00;;;11.35;;
22648;SDS011;11491;41.942;24.220;2022-09-09T03:51:10;18.95;;;11.65;;
22648;SDS011;11491;41.942;24.220;2022-09-09T03:53:37;16.02;;;12.38;;
22648;SDS011;11491;41.942;24.220;2022-09-09T03:56:04;15.85;;;12.00;;
22648;SDS011;11491;41.942;24.220;2022-09-09T03:58:32;15.38;;;12.18;;
22648;SDS011;11491;41.942;24.220;2022-09-09T04:01:01;16.98;;;12.80;;
22648;SDS011;11491;41.942;24.220;2022-09-09T04:03:29;22.85;;;14.55;;
22648;SDS011;11491;41.942;24.220;2022-09-09T04:05:57;19.67;;;13.50;;
22648;SDS011;11491;41.942;24.220;2022-09-09T04:08:30;21.48;;;14.30;;
22648;SDS011;11491;41.942;24.220;2022-09-09T04:10:57;21.10;;;14.70;;
22648;SDS011;11491;41.942;24.220;2022-09-09T04:13:26;17.10;;;13.23;;
22648;SDS011;11491;41.942;24.220;2022-09-09T04:15:54;17.73;;;13.30;;
22648;SDS011;11491;41.942;24.220;2022-09-09T04:18:22;21.30;;;13.40;;
22648;SDS011;11491;41.942;24.220;2022-09-09T04:20:50;17.75;;;11.45;;
22648;SDS011;11491;41.942;24.220;2022-09-09T04:23:18;24.88;;;11.02;;
22648;SDS011;11491;41.942;24.220;2022-09-09T04:25:47;23.75;;;15.93;;
22648;SDS011;11491;41.942;24.220;2022-09-09T04:28:16;22.30;;;14.57;;
22648;SDS011;11491;41.942;24.220;2022-09-09T04:30:44;22.42;;;16.38;;
22648;SDS011;11491;41.942;24.220;2022-09-09T04:33:12;25.58;;;17.85;;
22648;SDS011;11491;41.942;24.220;2022-09-09T04:35:39;29.52;;;18.85;;
22648;SDS011;11491;41.942;24.220;2022-09-09T04:38:11;28.02;;;19.05;;
22648;SDS011;11491;41.942;24.220;2022-09-09T04:40:37;24.55;;;18.77;;
22648;SDS011;11491;41.942;24.220;2022-09-09T04:43:09;31.50;;;21.92;;
22648;SDS011;11491;41.942;24.220;2022-09-09T04:45:36;38.08;;;26.23;;
22648;SDS011;11491;41.942;24.220;2022-09-09T04:48:03;26.55;;;21.10;;
22648;SDS011;11491;41.942;24.220;2022-09-09T04:50:29;35.10;;;23.95;;
22648;SDS011;11491;41.942;24.220;2022-09-09T04:52:56;36.08;;;22.13;;
22648;SDS011;11491;41.942;24.220;2022-09-09T04:55:26;32.17;;;23.10;;
22648;SDS011;11491;41.942;24.220;2022-09-09T04:57:53;32.08;;;23.45;;
22648;SDS011;11491;41.942;24.220;2022-09-09T05:00:21;31.33;;;22.05;;
22648;SDS011;11491;41.942;24.220;2022-09-09T05:02:47;31.23;;;19.85;;
22648;SDS011;11491;41.942;24.220;2022-09-09T05:05:14;24.30;;;17.17;;
22648;SDS011;11491;41.942;24.220;2022-09-09T05:07:41;19.83;;;14.18;;
22648;SDS011;11491;41.942;24.220;2022-09-09T05:10:08;22.00;;;15.75;;
22648;SDS011;11491;41.942;24.220;2022-09-09T05:12:35;26.83;;;18.17;;
22648;SDS011;11491;41.942;24.220;2022-09-09T05:15:02;31.65;;;18.00;;
22648;SDS011;11491;41.942;24.220;2022-09-09T05:17:31;34.28;;;18.73;;
22648;SDS011;11491;41.942;24.220;2022-09-09T05:19:58;39.35;;;27.40;;
22648;SDS011;11491;41.942;24.220;2022-09-09T05:22:25;37.53;;;23.52;;
22648;SDS011;11491;41.942;24.220;2022-09-09T05:24:52;30.25;;;19.35;;
22648;SDS011;11491;41.942;24.220;2022-09-09T05:27:19;25.42;;;15.00;;
22648;SDS011;11491;41.942;24.220;2022-09-09T05:29:46;20.90;;;13.25;;
22648;SDS011;11491;41.942;24.220;2022-09-09T05:32:13;25.42;;;12.90;;
22648;SDS011;11491;41.942;24.220;2022-09-09T05:34:41;16.85;;;11.23;;
22648;SDS011;11491;41.942;24.220;2022-09-09T05:37:08;21.30;;;11.68;;
22648;SDS011;11491;41.942;24.220;2022-09-09T05:39:35;18.17;;;13.00;;
22648;SDS011;11491;41.942;24.220;2022-09-09T05:42:03;17.00;;;12.70;;
22648;SDS011;11491;41.942;24.220;2022-09-09T05:44:30;20.80;;;11.23;;
22648;SDS011;11491;41.942;24.220;2022-09-09T05:46:57;18.08;;;10.15;;
22648;SDS011;11491;41.942;24.220;2022-09-09T05:49:24;18.92;;;11.02;;
22648;SDS011;11491;41.942;24.220;2022-09-09T05:51:52;23.98;;;12.20;;
22648;SDS011;11491;41.942;24.220;2022-09-09T05:54:19;22.23;;;12.43;;
22648;SDS011;11491;41.942;24.220;2022-09-09T05:56:46;16.60;;;10.27;;
22648;SDS011;11491;41.942;24.220;2022-09-09T05:59:14;16.33;;;10.60;;
22648;SDS011;11491;41.942;24.220;2022-09-09T06:01:41;19.50;;;9.55;;
22648;SDS011;11491;41.942;24.220;2022-09-09T06:04:08;16.88;;;9.93;;
22648;SDS011;11491;41.942;24.220;2022-09-09T06:06:35;17.42;;;8.07;;
22648;SDS011;11491;41.942;24.220;2022-09-09T06:09:06;18.83;;;9.18;;
22648;SDS011;11491;41.942;24.220;2022-09-09T06:11:35;13.70;;;10.02;;
22648;SDS011;11491;41.942;24.220;2022-09-09T06:14:04;13.25;;;8.70;;
22648;SDS011;11491;41.942;24.220;2022-09-09T06:16:31;17.75;;;9.45;;
22648;SDS011;11491;41.942;24.220;2022-09-09T06:18:59;18.35;;;9.52;;
22648;SDS011;11491;41.942;24.220;2022-09-09T06:21:28;13.52;;;8.43;;
22648;SDS011;11491;41.942;24.220;2022-09-09T06:23:56;13.63;;;8.48;;
22648;SDS011;11491;41.942;24.220;2022-09-09T06:26:25;15.52;;;8.13;;
22648;SDS011;11491;41.942;24.220;2022-09-09T06:28:53;18.38;;;8.50;;
22648;SDS011;11491;41.942;24.220;2022-09-09T06:31:23;14.80;;;7.78;;
22648;SDS011;11491;41.942;24.220;2022-09-09T06:33:51;15.38;;;8.18;;
22648;SDS011;11491;41.942;24.220;2022-09-09T06:36:20;15.45;;;8.15;;
22648;SDS011;11491;41.942;24.220;2022-09-09T06:38:49;16.83;;;9.18;;
22648;SDS011;11491;41.942;24.220;2022-09-09T06:41:16;12.60;;;7.78;;
22648;SDS011;11491;41.942;24.220;2022-09-09T06:43:46;19.23;;;9.70;;
22648;SDS011;11491;41.942;24.220;2022-09-09T06:46:14;14.77;;;8.93;;
22648;SDS011;11491;41.942;24.220;2022-09-09T06:48:42;48.85;;;34.55;;
22648;SDS011;11491;41.942;24.220;2022-09-09T06:51:11;11.70;;;8.68;;
22648;SDS011;11491;41.942;24.220;2022-09-09T06:53:40;14.85;;;7.05;;
22648;SDS011;11491;41.942;24.220;2022-09-09T06:56:17;9.52;;;6.45;;
22648;SDS011;11491;41.942;24.220;2022-09-09T06:58:48;16.67;;;7.03;;
22648;SDS011;11491;41.942;24.220;2022-09-09T07:01:17;11.82;;;6.80;;
22648;SDS011;11491;41.942;24.220;2022-09-09T07:03:45;13.55;;;7.68;;
22648;SDS011;11491;41.942;24.220;2022-09-09T07:06:16;12.73;;;7.10;;
22648;SDS011;11491;41.942;24.220;2022-09-09T07:08:44;14.20;;;7.97;;
22648;SDS011;11491;41.942;24.220;2022-09-09T07:11:15;12.63;;;7.47;;
22648;SDS011;11491;41.942;24.220;2022-09-09T07:13:42;12.50;;;7.43;;
22648;SDS011;11491;41.942;24.220;2022-09-09T07:16:10;17.17;;;7.30;;
22648;SDS011;11491;41.942;24.220;2022-09-09T07:18:38;11.32;;;6.90;;
22648;SDS011;11491;41.942;24.220;2022-09-09T07:21:08;10.02;;;7.53;;
22648;SDS011;11491;41.942;24.220;2022-09-09T07:23:37;14.10;;;8.80;;
22648;SDS011;11491;41.942;24.220;2022-09-09T07:26:07;13.02;;;6.32;;
22648;SDS011;11491;41.942;24.220;2022-09-09T07:28:35;18.45;;;8.50;;
22648;SDS011;11491;41.942;24.220;2022-09-09T07:31:02;13.48;;;7.70;;
22648;SDS011;11491;41.942;24.220;2022-09-09T07:33:31;11.88;;;6.50;;
22648;SDS011;11491;41.942;24.220;2022-09-09T07:36:03;11.90;;;7.22;;
22648;SDS011;11491;41.942;24.220;2022-09-09T07:38:32;12.07;;;6.10;;
22648;SDS011;11491;41.942;24.220;2022-09-09T07:41:04;33.85;;;25.88;;
22648;SDS011;11491;41.942;24.220;2022-09-09T07:43:33;24.10;;;19.65;;
22648;SDS011;11491;41.942;24.220;2022-09-09T07:45:59;17.17;;;12.35;;
22648;SDS011;11491;41.942;24.220;2022-09-09T07:48:27;23.85;;;16.23;;
22648;SDS011;11491;41.942;24.220;2022-09-09T07:51:04;11.43;;;8.30;;
22648;SDS011;11491;41.942;24.220;2022-09-09T07:53:32;12.07;;;8.15;;
22648;SDS011;11491;41.942;24.220;2022-09-09T07:56:04;16.52;;;7.25;;
22648;SDS011;11491;41.942;24.220;2022-09-09T07:58:34;10.10;;;6.25;;
22648;SDS011;11491;41.942;24.220;2022-09-09T08:01:05;9.52;;;6.32;;
22648;SDS011;11491;41.942;24.220;2022-09-09T08:03:34;26.20;;;14.65;;
22648;SDS011;11491;41.942;24.220;2022-09-09T08:06:01;22.17;;;10.65;;
22648;SDS011;11491;41.942;24.220;2022-09-09T08:08:32;11.82;;;8.73;;
22648;SDS011;11491;41.942;24.220;2022-09-09T08:11:03;9.77;;;6.95;;
22648;SDS011;11491;41.942;24.220;2022-09-09T08:13:32;18.97;;;15.73;;
22648;SDS011;11491;41.942;24.220;2022-09-09T08:16:06;16.27;;;9.48;;
22648;SDS011;11491;41.942;24.220;2022-09-09T08:18:35;11.57;;;6.60;;
22648;SDS011;11491;41.942;24.220;2022-09-09T08:21:08;9.13;;;6.65;;
22648;SDS011;11491;41.942;24.220;2022-09-09T08:23:38;7.95;;;7.05;;
22648;SDS011;11491;41.942;24.220;2022-09-09T08:26:06;10.95;;;7.53;;
22648;SDS011;11491;41.942;24.220;2022-09-09T08:28:35;32.55;;;25.92;;
22648;SDS011;11491;41.942;24.220;2022-09-09T08:31:09;18.48;;;11.10;;
22648;SDS011;11491;41.942;24.220;2022-09-09T08:33:37;19.98;;;14.90;;
22648;SDS011;11491;41.942;24.220;2022-09-09T08:36:04;15.88;;;8.93;;
22648;SDS011;11491;41.942;24.220;2022-09-09T08:38:34;14.43;;;7.55;;
22648;SDS011;11491;41.942;24.220;2022-09-09T08:41:06;11.55;;;6.97;;
22648;SDS011;11491;41.942;24.220;2022-09-09T08:43:41;7.05;;;6.22;;
22648;SDS011;11491;41.942;24.220;2022-09-09T08:46:13;13.02;;;6.22;;
22648;SDS011;11491;41.942;24.220;2022-09-09T08:48:48;12.85;;;6.53;;
22648;SDS011;11491;41.942;24.220;2022-09-09T08:51:24;15.52;;;6.85;;
22648;SDS011;11491;41.942;24.220;2022-09-09T08:53:55;10.23;;;6.43;;
22648;SDS011;11491;41.942;24.220;2022-09-09T08:56:27;14.40;;;6.88;;
22648;SDS011;11491;41.942;24.220;2022-09-09T08:58:57;8.18;;;6.07;;
22648;SDS011;11491;41.942;24.220;2022-09-09T09:01:34;7.55;;;6.22;;
22648;SDS011;11491;41.942;24.220;2022-09-09T09:04:11;11.18;;;6.55;;
22648;SDS011;11491;41.942;24.220;2022-09-09T09:06:59;10.35;;;6.35;;
22648;SDS011;11491;41.942;24.220;2022-09-09T09:09:42;8.07;;;6.18;;
22648;SDS011;11491;41.942;24.220;2022-09-09T09:12:17;7.65;;;6.40;;
22648;SDS011;11491;41.942;24.220;2022-09-09T09:14:47;8.50;;;6.13;;
22648;SDS011;11491;41.942;24.220;2022-09-09T09:17:14;8.02;;;5.85;;
22648;SDS011;11491;41.942;24.220;2022-09-09T09:19:44;14.38;;;6.88;;
22648;SDS011;11491;41.942;24.220;2022-09-09T09:22:14;8.45;;;6.45;;
22648;SDS011;11491;41.942;24.220;2022-09-09T09:24:48;9.27;;;6.10;;
22648;SDS011;11491;41.942;24.220;2022-09-09T09:27:20;12.23;;;7.00;;
22648;SDS011;11491;41.942;24.220;2022-09-09T09:29:56;7.90;;;6.18;;
22648;SDS011;11491;41.942;24.220;2022-09-09T09:32:25;8.93;;;6.95;;
22648;SDS011;11491;41.942;24.220;2022-09-09T09:34:56;8.85;;;6.75;;
22648;SDS011;11491;41.942;24.220;2022-09-09T09:37:26;8.25;;;6.78;;
22648;SDS011;11491;41.942;24.220;2022-09-09T09:40:07;9.50;;;6.10;;
22648;SDS011;11491;41.942;24.220;2022-09-09T09:42:34;8.98;;;6.60;;
22648;SDS011;11491;41.942;24.220;2022-09-09T09:45:07;8.75;;;6.07;;
22648;SDS011;11491;41.942;24.220;2022-09-09T09:47:35;12.43;;;6.38;;
22648;SDS011;11491;41.942;24.220;2022-09-09T09:50:02;8.93;;;6.85;;
22648;SDS011;11491;41.942;24.220;2022-09-09T09:52:30;10.60;;;6.75;;
22648;SDS011;11491;41.942;24.220;2022-09-09T09:55:02;6.72;;;6.13;;
22648;SDS011;11491;41.942;24.220;2022-09-09T09:57:32;9.30;;;5.90;;
22648;SDS011;11491;41.942;24.220;2022-09-09T10:00:00;6.63;;;6.03;;
22648;SDS011;11491;41.942;24.220;2022-09-09T10:02:36;9.85;;;6.18;;
22648;SDS011;11491;41.942;24.220;2022-09-09T10:05:08;12.45;;;6.90;;
22648;SDS011;11491;41.942;24.220;2022-09-09T10:07:40;8.50;;;5.85;;
22648;SDS011;11491;41.942;24.220;2022-09-09T10:10:12;7.72;;;5.85;;
22648;SDS011;11491;41.942;24.220;2022-09-09T10:12:47;8.38;;;6.43;;
22648;SDS011;11491;41.942;24.220;2022-09-09T10:15:28;8.13;;;6.50;;
22648;SDS011;11491;41.942;24.220;2022-09-09T10:18:04;10.98;;;8.20;;
22648;SDS011;11491;41.942;24.220;2022-09-09T10:20:43;9.38;;;6.65;;
22648;SDS011;11491;41.942;24.220;2022-09-09T10:26:08;7.90;;;6.30;;
22648;SDS011;11491;41.942;24.220;2022-09-09T10:28:51;11.88;;;6.93;;
22648;SDS011;11491;41.942;24.220;2022-09-09T10:31:28;9.40;;;6.40;;
22648;SDS011;11491;41.942;24.220;2022-09-09T10:34:05;7.20;;;6.50;;
22648;SDS011;11491;41.942;24.220;2022-09-09T10:36:43;7.28;;;6.57;;
22648;SDS011;11491;41.942;24.220;2022-09-09T10:39:15;11.52;;;7.43;;
22648;SDS011;11491;41.942;24.220;2022-09-09T10:41:59;10.90;;;6.93;;
22648;SDS011;11491;41.942;24.220;2022-09-09T10:44:36;8.20;;;7.10;;
22648;SDS011;11491;41.942;24.220;2022-09-09T10:47:16;12.75;;;6.78;;
22648;SDS011;11491;41.942;24.220;2022-09-09T10:50:05;11.25;;;7.20;;
22648;SDS011;11491;41.942;24.220;2022-09-09T10:53:02;9.82;;;7.30;;
22648;SDS011;11491;41.942;24.220;2022-09-09T10:55:39;8.85;;;7.07;;
22648;SDS011;11491;41.942;24.220;2022-09-09T10:58:12;18.35;;;10.77;;
22648;SDS011;11491;41.942;24.220;2022-09-09T11:00:46;11.90;;;8.48;;
22648;SDS011;11491;41.942;24.220;2022-09-09T11:03:18;10.73;;;8.18;;
22648;SDS011;11491;41.942;24.220;2022-09-09T11:05:49;9.10;;;7.28;;
22648;SDS011;11491;41.942;24.220;2022-09-09T11:08:20;8.82;;;7.88;;
22648;SDS011;11491;41.942;24.220;2022-09-09T11:10:51;17.35;;;7.80;;
22648;SDS011;11491;41.942;24.220;2022-09-09T11:13:25;13.45;;;7.55;;
22648;SDS011;11491;41.942;24.220;2022-09-09T11:18:26;33.83;;;27.77;;
22648;SDS011;11491;41.942;24.220;2022-09-09T11:20:58;23.83;;;21.38;;
22648;SDS011;11491;41.942;24.220;2022-09-09T11:23:28;19.63;;;17.65;;
22648;SDS011;11491;41.942;24.220;2022-09-09T11:26:00;15.70;;;14.00;;
22648;SDS011;11491;41.942;24.220;2022-09-09T11:28:35;18.65;;;17.10;;
22648;SDS011;11491;41.942;24.220;2022-09-09T11:31:19;15.25;;;11.40;;
22648;SDS011;11491;41.942;24.220;2022-09-09T11:34:02;12.35;;;11.07;;
22648;SDS011;11491;41.942;24.220;2022-09-09T11:42:48;12.10;;;8.27;;
22648;SDS011;11491;41.942;24.220;2022-09-09T11:45:28;12.50;;;8.27;;
22648;SDS011;11491;41.942;24.220;2022-09-09T11:47:56;14.38;;;9.60;;
22648;SDS011;11491;41.942;24.220;2022-09-09T11:50:28;8.45;;;7.38;;
22648;SDS011;11491;41.942;24.220;2022-09-09T11:53:04;14.20;;;7.97;;
22648;SDS011;11491;41.942;24.220;2022-09-09T11:55:48;10.60;;;7.65;;
22648;SDS011;11491;41.942;24.220;2022-09-09T11:58:26;9.75;;;7.93;;
22648;SDS011;11491;41.942;24.220;2022-09-09T12:00:58;9.85;;;7.95;;
22648;SDS011;11491;41.942;24.220;2022-09-09T12:03:33;11.82;;;7.75;;
22648;SDS011;11491;41.942;24.220;2022-09-09T12:06:09;11.00;;;7.53;;
22648;SDS011;11491;41.942;24.220;2022-09-09T12:08:40;11.05;;;7.10;;
22648;SDS011;11491;41.942;24.220;2022-09-09T12:11:11;11.90;;;6.80;;
22648;SDS011;11491;41.942;24.220;2022-09-09T12:13:37;7.95;;;6.50;;
22648;SDS011;11491;41.942;24.220;2022-09-09T12:19:13;10.38;;;9.30;;
22648;SDS011;11491;41.942;24.220;2022-09-09T12:21:44;13.75;;;7.22;;
22648;SDS011;11491;41.942;24.220;2022-09-09T12:24:19;11.10;;;6.45;;
22648;SDS011;11491;41.942;24.220;2022-09-09T12:26:55;9.35;;;6.90;;
22648;SDS011;11491;41.942;24.220;2022-09-09T12:29:30;13.15;;;7.38;;
22648;SDS011;11491;41.942;24.220;2022-09-09T12:32:09;14.63;;;7.65;;
22648;SDS011;11491;41.942;24.220;2022-09-09T12:34:39;13.80;;;8.65;;
22648;SDS011;11491;41.942;24.220;2022-09-09T12:37:18;15.82;;;7.10;;
22648;SDS011;11491;41.942;24.220;2022-09-09T12:39:54;11.13;;;6.68;;
22648;SDS011;11491;41.942;24.220;2022-09-09T12:42:22;8.85;;;6.68;;
22648;SDS011;11491;41.942;24.220;2022-09-09T12:44:50;9.40;;;6.22;;
22648;SDS011;11491;41.942;24.220;2022-09-09T12:47:20;13.75;;;6.63;;
22648;SDS011;11491;41.942;24.220;2022-09-09T12:49:51;9.07;;;6.38;;
22648;SDS011;11491;41.942;24.220;2022-09-09T12:52:24;10.52;;;6.20;;
22648;SDS011;11491;41.942;24.220;2022-09-09T12:54:56;11.13;;;6.35;;
22648;SDS011;11491;41.942;24.220;2022-09-09T12:57:25;9.00;;;6.45;;
22648;SDS011;11491;41.942;24.220;2022-09-09T13:00:03;8.95;;;6.22;;
22648;SDS011;11491;41.942;24.220;2022-09-09T13:02:33;12.23;;;10.98;;
22648;SDS011;11491;41.942;24.220;2022-09-09T13:05:13;13.63;;;10.02;;
22648;SDS011;11491;41.942;24.220;2022-09-09T13:07:42;11.73;;;6.82;;
22648;SDS011;11491;41.942;24.220;2022-09-09T13:10:10;9.82;;;6.78;;
22648;SDS011;11491;41.942;24.220;2022-09-09T13:12:38;11.05;;;7.53;;
22648;SDS011;11491;41.942;24.220;2022-09-09T13:15:09;12.68;;;8.57;;
22648;SDS011;11491;41.942;24.220;2022-09-09T13:17:42;9.30;;;6.93;;
22648;SDS011;11491;41.942;24.220;2022-09-09T13:20:15;9.00;;;7.45;;
22648;SDS011;11491;41.942;24.220;2022-09-09T13:22:43;14.40;;;7.40;;
22648;SDS011;11491;41.942;24.220;2022-09-09T13:25:17;17.95;;;8.18;;
22648;SDS011;11491;41.942;24.220;2022-09-09T13:27:51;10.25;;;7.53;;
22648;SDS011;11491;41.942;24.220;2022-09-09T13:30:21;10.30;;;7.78;;
22648;SDS011;11491;41.942;24.220;2022-09-09T13:33:04;12.05;;;7.72;;
22648;SDS011;11491;41.942;24.220;2022-09-09T13:35:45;9.75;;;7.88;;
22648;SDS011;11491;41.942;24.220;2022-09-09T13:38:14;18.48;;;8.15;;
22648;SDS011;11491;41.942;24.220;2022-09-09T13:40:51;13.35;;;8.43;;
22648;SDS011;11491;41.942;24.220;2022-09-09T13:43:21;9.73;;;8.32;;
22648;SDS011;11491;41.942;24.220;2022-09-09T13:45:52;12.68;;;8.18;;
22648;SDS011;11491;41.942;24.220;2022-09-09T13:48:22;13.30;;;8.10;;
22648;SDS011;11491;41.942;24.220;2022-09-09T13:50:56;10.43;;;8.10;;
22648;SDS011;11491;41.942;24.220;2022-09-09T13:53:24;14.18;;;6.90;;
22648;SDS011;11491;41.942;24.220;2022-09-09T13:55:51;7.78;;;6.95;;
22648;SDS011;11491;41.942;24.220;2022-09-09T13:58:20;7.45;;;6.47;;
22648;SDS011;11491;41.942;24.220;2022-09-09T14:00:48;8.82;;;7.40;;
22648;SDS011;11491;41.942;24.220;2022-09-09T14:03:15;9.68;;;7.78;;
22648;SDS011;11491;41.942;24.220;2022-09-09T14:05:43;9.13;;;7.28;;
22648;SDS011;11491;41.942;24.220;2022-09-09T14:08:12;10.55;;;8.15;;
22648;SDS011;11491;41.942;24.220;2022-09-09T14:10:46;14.55;;;7.43;;
22648;SDS011;11491;41.942;24.220;2022-09-09T14:13:13;10.90;;;7.50;;
22648;SDS011;11491;41.942;24.220;2022-09-09T14:15:40;11.05;;;7.55;;
22648;SDS011;11491;41.942;24.220;2022-09-09T14:18:08;11.60;;;7.63;;
22648;SDS011;11491;41.942;24.220;2022-09-09T14:20:37;8.90;;;7.22;;
22648;SDS011;11491;41.942;24.220;2022-09-09T14:23:05;10.13;;;7.78;;
22648;SDS011;11491;41.942;24.220;2022-09-09T14:25:33;11.60;;;7.32;;
22648;SDS011;11491;41.942;24.220;2022-09-09T14:28:00;15.40;;;10.52;;
22648;SDS011;11491;41.942;24.220;2022-09-09T14:30:27;11.77;;;7.70;;
22648;SDS011;11491;41.942;24.220;2022-09-09T14:32:54;9.05;;;7.22;;
22648;SDS011;11491;41.942;24.220;2022-09-09T14:35:21;13.82;;;9.75;;
22648;SDS011;11491;41.942;24.220;2022-09-09T14:37:47;19.45;;;14.13;;
22648;SDS011;11491;41.942;24.220;2022-09-09T14:40:16;13.40;;;8.23;;
22648;SDS011;11491;41.942;24.220;2022-09-09T14:42:42;9.80;;;7.45;;
22648;SDS011;11491;41.942;24.220;2022-09-09T14:45:10;10.35;;;8.30;;
22648;SDS011;11491;41.942;24.220;2022-09-09T14:47:37;10.88;;;9.63;;
22648;SDS011;11491;41.942;24.220;2022-09-09T14:50:07;18.67;;;7.75;;
22648;SDS011;11491;41.942;24.220;2022-09-09T14:52:34;11.77;;;9.32;;
22648;SDS011;11491;41.942;24.220;2022-09-09T14:55:00;13.55;;;8.23;;
22648;SDS011;11491;41.942;24.220;2022-09-09T14:57:28;10.07;;;8.40;;
22648;SDS011;11491;41.942;24.220;2022-09-09T14:59:55;11.27;;;8.10;;
22648;SDS011;11491;41.942;24.220;2022-09-09T15:02:22;12.68;;;9.85;;